createdAt,value
2023-03-30T00:01:19.735Z,2.40
2023-03-30T00:03:49.423Z,1.75
2023-03-30T00:06:24.771Z,1.80
2023-03-30T00:08:57.581Z,2.03
2023-03-30T00:11:26.440Z,2.15
2023-03-30T00:13:53.672Z,2.20
2023-03-30T00:16:22.102Z,2.28
2023-03-30T00:18:49.336Z,3.03
2023-03-30T00:21:18.475Z,2.67
2023-03-30T00:23:48.535Z,2.22
2023-03-30T00:26:16.202Z,2.72
2023-03-30T00:28:43.259Z,2.58
2023-03-30T00:31:11.582Z,2.85
2023-03-30T00:33:46.430Z,3.10
2023-03-30T00:36:15.009Z,2.78
2023-03-30T00:38:42.372Z,2.80
2023-03-30T00:41:09.551Z,3.03
2023-03-30T00:43:59.038Z,2.70
2023-03-30T00:46:26.528Z,2.60
2023-03-30T00:48:58.006Z,3.03
2023-03-30T00:51:27.297Z,3.53
2023-03-30T00:54:00.446Z,3.17
2023-03-30T00:56:31.040Z,2.80
2023-03-30T00:58:58.608Z,2.97
2023-03-30T01:01:29.023Z,2.22
2023-03-30T01:04:02.693Z,2.42
2023-03-30T01:06:31.696Z,2.55
2023-03-30T01:08:59.279Z,2.20
2023-03-30T01:11:27.110Z,2.35
2023-03-30T01:14:00.165Z,2.05
2023-03-30T01:16:36.339Z,1.88
2023-03-30T01:19:48.490Z,1.90
2023-03-30T01:22:50.711Z,1.80
2023-03-30T01:25:40.763Z,1.95
2023-03-30T01:28:21.449Z,1.52
2023-03-30T01:31:22.051Z,1.40
2023-03-30T01:34:25.690Z,1.40
2023-03-30T01:37:37.105Z,1.70
2023-03-30T01:40:22.338Z,1.50
2023-03-30T01:43:14.652Z,1.23
2023-03-30T01:45:47.939Z,1.00
2023-03-30T01:48:30.063Z,0.82
2023-03-30T01:51:04.936Z,0.77
2023-03-30T01:56:22.155Z,0.80
2023-03-30T02:01:24.528Z,0.63
2023-03-30T02:03:56.224Z,0.60
2023-03-30T02:06:43.687Z,0.68
2023-03-30T02:09:17.370Z,0.95
2023-03-30T02:11:48.626Z,0.50
2023-03-30T02:14:21.989Z,0.47
2023-03-30T02:16:54.427Z,0.60
2023-03-30T02:19:22.029Z,0.70
2023-03-30T02:21:50.716Z,0.70
2023-03-30T02:24:23.180Z,0.75
2023-03-30T02:26:52.394Z,0.50
2023-03-30T02:29:21.581Z,0.60
2023-03-30T02:31:54.002Z,0.43
2023-03-30T02:34:48.909Z,0.50
2023-03-30T02:37:48.026Z,0.50
2023-03-30T02:40:36.158Z,0.35
2023-03-30T02:43:42.459Z,0.32
2023-03-30T02:49:18.131Z,0.30
2023-03-30T02:51:51.737Z,0.50
2023-03-30T02:54:31.481Z,0.30
2023-03-30T02:57:18.045Z,0.40
2023-03-30T03:00:22.539Z,0.52
2023-03-30T03:02:57.929Z,0.63
2023-03-30T03:05:27.255Z,0.40
2023-03-30T03:07:55.222Z,0.73
2023-03-30T03:10:22.386Z,0.88
2023-03-30T03:12:50.165Z,1.05
2023-03-30T03:15:17.153Z,0.80
2023-03-30T03:17:45.599Z,1.25
2023-03-30T03:20:13.311Z,1.27
2023-03-30T03:22:40.241Z,1.35
2023-03-30T03:25:08.959Z,1.23
2023-03-30T03:27:35.931Z,1.80
2023-03-30T03:30:04.236Z,1.70
2023-03-30T03:32:31.445Z,1.17
2023-03-30T03:34:58.404Z,1.45
2023-03-30T03:37:25.342Z,1.70
2023-03-30T03:39:52.287Z,1.75
2023-03-30T03:42:19.490Z,2.03
2023-03-30T03:44:46.401Z,1.65
2023-03-30T03:47:16.016Z,2.15
2023-03-30T03:49:43.501Z,1.58
2023-03-30T03:52:11.382Z,1.83
2023-03-30T03:54:38.619Z,1.60
2023-03-30T03:57:06.651Z,2.10
2023-03-30T03:59:33.789Z,1.75
2023-03-30T04:02:00.779Z,1.67
2023-03-30T04:04:28.109Z,1.90
2023-03-30T04:06:55.028Z,1.92
2023-03-30T04:09:22.428Z,1.98
2023-03-30T04:11:49.783Z,2.20
2023-03-30T04:14:16.976Z,2.15
2023-03-30T04:16:44.159Z,2.40
2023-03-30T04:19:12.897Z,2.13
2023-03-30T04:21:41.389Z,2.03
2023-03-30T04:24:12.406Z,2.45
2023-03-30T04:26:41.967Z,2.78
2023-03-30T04:29:09.130Z,2.47
2023-03-30T04:31:38.517Z,2.17
2023-03-30T04:34:05.579Z,2.42
2023-03-30T04:36:32.486Z,2.40
2023-03-30T04:39:00.740Z,2.20
2023-03-30T04:41:33.668Z,2.08
2023-03-30T04:44:06.540Z,2.22
2023-03-30T04:46:34.272Z,2.42
2023-03-30T04:49:01.373Z,2.75
2023-03-30T04:51:29.126Z,1.90
2023-03-30T04:53:56.168Z,2.50
2023-03-30T04:56:23.156Z,2.22
2023-03-30T04:58:50.263Z,2.38
2023-03-30T05:01:17.195Z,3.42
2023-03-30T05:03:44.179Z,2.60
2023-03-30T05:06:11.682Z,2.67
2023-03-30T05:08:40.602Z,2.53
2023-03-30T05:11:08.886Z,2.53
2023-03-30T05:13:35.901Z,2.78
2023-03-30T05:16:02.814Z,2.08
2023-03-30T05:18:29.713Z,2.60
2023-03-30T05:20:58.843Z,2.50
2023-03-30T05:23:26.500Z,2.40
2023-03-30T05:25:55.384Z,2.30
2023-03-30T05:28:23.124Z,2.35
2023-03-30T05:30:56.276Z,3.60
2023-03-30T05:33:23.791Z,2.97
2023-03-30T05:35:51.841Z,2.45
2023-03-30T05:38:18.793Z,2.72
2023-03-30T05:40:46.161Z,3.10
2023-03-30T05:43:13.215Z,3.05
2023-03-30T05:45:40.237Z,3.10
2023-03-30T05:48:07.484Z,2.90
2023-03-30T05:50:34.508Z,3.15
2023-03-30T05:53:01.773Z,2.88
2023-03-30T05:55:29.160Z,3.08
2023-03-30T05:57:57.052Z,2.95
2023-03-30T06:00:24.053Z,3.03
2023-03-30T06:02:52.228Z,2.85
2023-03-30T06:05:19.713Z,3.30
2023-03-30T06:07:46.736Z,2.53
2023-03-30T06:10:13.814Z,2.90
2023-03-30T06:12:40.756Z,2.50
2023-03-30T06:15:09.409Z,2.83
2023-03-30T06:17:37.310Z,3.17
2023-03-30T06:20:11.677Z,2.78
2023-03-30T06:22:42.262Z,2.70
2023-03-30T06:25:10.509Z,2.95
2023-03-30T06:27:37.611Z,3.40
2023-03-30T06:30:05.461Z,3.42
2023-03-30T06:32:32.741Z,3.70
2023-03-30T06:34:59.857Z,3.72
2023-03-30T06:37:26.867Z,3.47
2023-03-30T06:39:54.259Z,3.80
2023-03-30T06:42:21.571Z,3.42
2023-03-30T06:44:49.946Z,3.42
2023-03-30T06:47:17.113Z,3.63
2023-03-30T06:49:44.055Z,4.32
2023-03-30T06:52:11.832Z,3.72
2023-03-30T06:54:38.758Z,3.63
2023-03-30T06:57:05.796Z,3.92
2023-03-30T06:59:34.639Z,3.22
2023-03-30T07:02:02.252Z,4.45
2023-03-30T07:04:29.560Z,3.97
2023-03-30T07:06:58.263Z,4.13
2023-03-30T07:09:26.572Z,4.25
2023-03-30T07:11:55.889Z,4.70
2023-03-30T07:14:23.737Z,3.33
2023-03-30T07:16:51.618Z,4.00
2023-03-30T07:19:18.871Z,3.97
2023-03-30T07:21:45.972Z,4.80
2023-03-30T07:24:12.993Z,4.68
2023-03-30T07:26:39.890Z,3.75
2023-03-30T07:29:07.634Z,3.67
2023-03-30T07:31:37.356Z,3.83
2023-03-30T07:34:04.627Z,3.85
2023-03-30T07:36:31.524Z,3.70
2023-03-30T07:38:58.832Z,4.43
2023-03-30T07:41:25.959Z,3.63
2023-03-30T07:43:52.886Z,3.60
2023-03-30T07:46:20.487Z,3.70
2023-03-30T07:48:47.418Z,3.20
2023-03-30T07:51:15.206Z,3.38
2023-03-30T07:53:42.502Z,3.53
2023-03-30T07:56:09.491Z,3.35
2023-03-30T07:58:37.260Z,3.58
2023-03-30T08:01:05.440Z,2.95
2023-03-30T08:03:33.389Z,3.65
2023-03-30T08:06:06.743Z,3.20
2023-03-30T08:08:34.251Z,2.70
2023-03-30T08:11:02.360Z,2.70
2023-03-30T08:13:29.679Z,2.33
2023-03-30T08:15:56.855Z,2.63
2023-03-30T08:18:23.869Z,2.45
2023-03-30T08:20:54.324Z,2.30
2023-03-30T08:23:22.268Z,2.55
2023-03-30T08:25:52.892Z,2.72
2023-03-30T08:28:21.689Z,2.35
2023-03-30T08:30:49.014Z,2.72
2023-03-30T08:33:17.170Z,2.38
2023-03-30T08:35:48.346Z,2.75
2023-03-30T08:38:17.577Z,2.63
2023-03-30T08:40:47.778Z,2.88
2023-03-30T08:43:41.753Z,2.70
2023-03-30T08:46:16.341Z,2.65
2023-03-30T08:48:43.987Z,3.13
2023-03-30T08:51:27.957Z,2.65
2023-03-30T08:54:02.132Z,2.70
2023-03-30T08:56:37.795Z,3.67
2023-03-30T08:59:43.562Z,3.08
2023-03-30T09:02:29.194Z,2.72
2023-03-30T09:05:02.280Z,2.67
2023-03-30T09:07:34.499Z,2.92
2023-03-30T09:10:01.936Z,3.30
2023-03-30T09:12:48.610Z,2.35
2023-03-30T09:15:31.730Z,3.25
2023-03-30T09:18:20.516Z,3.22
2023-03-30T09:20:49.009Z,3.40
2023-03-30T09:23:17.902Z,3.05
2023-03-30T09:25:51.407Z,2.42
2023-03-30T09:28:45.816Z,2.78
2023-03-30T09:31:25.440Z,2.47
2023-03-30T09:34:40.525Z,2.50
2023-03-30T09:37:13.293Z,3.17
2023-03-30T09:39:41.554Z,2.50
2023-03-30T09:42:45.833Z,2.92
2023-03-30T09:45:22.859Z,2.42
2023-03-30T09:47:49.807Z,2.67
2023-03-30T09:50:29.588Z,3.10
2023-03-30T09:53:01.466Z,2.60
2023-03-30T09:55:35.312Z,2.83
2023-03-30T09:58:26.838Z,2.63
2023-03-30T10:01:12.816Z,2.58
2023-03-30T10:03:42.396Z,3.20
2023-03-30T10:06:18.094Z,3.20
2023-03-30T10:08:52.369Z,2.72
2023-03-30T10:11:44.922Z,2.10
2023-03-30T10:14:31.863Z,2.10
2023-03-30T10:17:00.115Z,2.05
2023-03-30T10:19:28.245Z,1.88
2023-03-30T10:22:00.295Z,1.70
2023-03-30T10:24:31.792Z,2.00
2023-03-30T10:27:09.938Z,2.33
2023-03-30T10:29:37.113Z,1.88
2023-03-30T10:32:21.997Z,2.05
2023-03-30T10:35:04.701Z,2.25
2023-03-30T10:37:37.691Z,2.20
2023-03-30T10:40:18.397Z,2.30
2023-03-30T10:42:50.154Z,3.13
2023-03-30T10:45:22.652Z,2.65
2023-03-30T10:47:49.585Z,3.15
2023-03-30T10:50:41.407Z,2.80
2023-03-30T10:54:01.219Z,2.88
2023-03-30T10:56:49.282Z,2.60
2023-03-30T10:59:35.039Z,3.20
2023-03-30T11:02:29.844Z,3.25
2023-03-30T11:05:12.791Z,2.70
2023-03-30T11:08:18.133Z,2.67
2023-03-30T11:10:50.351Z,2.60
2023-03-30T11:13:54.188Z,3.20
2023-03-30T11:16:47.888Z,4.63
2023-03-30T11:19:26.622Z,3.80
2023-03-30T11:22:22.573Z,4.03
2023-03-30T11:27:40.659Z,3.83
2023-03-30T11:30:26.993Z,3.95
2023-03-30T11:32:58.051Z,4.10
2023-03-30T11:35:37.052Z,4.43
2023-03-30T11:38:21.598Z,3.90
2023-03-30T11:40:56.343Z,3.95
2023-03-30T11:43:27.334Z,4.13
2023-03-30T11:47:10.816Z,2.75
2023-03-30T11:49:57.912Z,2.75
2023-03-30T11:53:07.980Z,2.55
2023-03-30T11:55:55.229Z,2.13
2023-03-30T11:59:05.688Z,1.80
2023-03-30T12:01:48.241Z,2.30
2023-03-30T12:04:29.561Z,1.75
2023-03-30T12:07:01.388Z,2.30
2023-03-30T12:09:45.557Z,2.10
2023-03-30T12:12:16.262Z,2.05
2023-03-30T12:15:03.387Z,2.22
2023-03-30T12:17:50.782Z,2.42
2023-03-30T12:20:49.206Z,2.67
2023-03-30T12:23:34.534Z,3.78
2023-03-30T12:26:19.813Z,3.30
2023-03-30T12:31:19.022Z,3.45
2023-03-30T12:33:53.835Z,3.40
2023-03-30T12:36:40.215Z,3.13
2023-03-30T12:39:18.027Z,3.15
2023-03-30T12:41:50.775Z,2.78
2023-03-30T12:44:52.058Z,3.03
2023-03-30T12:47:51.864Z,3.53
2023-03-30T12:50:37.434Z,3.80
2023-03-30T12:56:20.598Z,4.30
2023-03-30T12:59:26.336Z,4.82
2023-03-30T13:02:32.744Z,3.75
2023-03-30T13:07:32.239Z,3.78
2023-03-30T13:10:06.372Z,3.95
2023-03-30T13:12:36.261Z,4.35
2023-03-30T13:15:17.637Z,4.07
2023-03-30T13:17:57.469Z,4.25
2023-03-30T13:20:37.164Z,4.88
2023-03-30T13:23:27.835Z,3.78
2023-03-30T13:25:57.890Z,4.22
2023-03-30T13:29:03.635Z,3.45
2023-03-30T13:31:58.079Z,2.78
2023-03-30T13:35:29.991Z,3.15
2023-03-30T13:38:28.369Z,2.80
2023-03-30T13:41:19.803Z,3.33
2023-03-30T13:44:07.988Z,3.38
2023-03-30T13:46:47.046Z,2.97
2023-03-30T13:49:38.727Z,3.20
2023-03-30T13:52:17.457Z,3.10
2023-03-30T13:54:46.172Z,2.28
2023-03-30T13:57:31.980Z,1.88
2023-03-30T14:00:28.631Z,2.20
2023-03-30T14:02:55.736Z,1.85
2023-03-30T14:05:28.028Z,2.00
2023-03-30T14:07:58.823Z,2.33
2023-03-30T14:10:27.251Z,2.95
2023-03-30T14:12:56.997Z,2.65
2023-03-30T14:15:34.004Z,2.65
2023-03-30T14:18:05.110Z,2.75
2023-03-30T14:20:55.882Z,3.35
2023-03-30T14:23:38.169Z,3.20
2023-03-30T14:26:29.390Z,3.50
2023-03-30T14:29:10.880Z,3.00
2023-03-30T14:31:41.571Z,2.85
2023-03-30T14:34:30.815Z,2.47
2023-03-30T14:37:05.607Z,3.08
2023-03-30T14:39:42.788Z,3.03
2023-03-30T14:42:24.870Z,2.15
2023-03-30T14:44:56.209Z,1.85
2023-03-30T14:47:26.087Z,2.38
2023-03-30T14:50:00.654Z,2.92
2023-03-30T14:52:42.102Z,2.33
2023-03-30T14:55:17.566Z,2.17
2023-03-30T14:57:46.988Z,2.10
2023-03-30T15:00:19.279Z,2.20
2023-03-30T15:02:51.004Z,2.10
2023-03-30T15:05:19.414Z,2.38
2023-03-30T15:07:49.801Z,2.67
2023-03-30T15:10:51.353Z,2.85
2023-03-30T15:13:32.855Z,2.53
2023-03-30T15:16:01.293Z,2.97
2023-03-30T15:18:30.865Z,2.38
2023-03-30T15:20:59.709Z,3.05
2023-03-30T15:23:35.156Z,2.63
2023-03-30T15:26:04.530Z,2.72
2023-03-30T15:28:39.048Z,3.17
2023-03-30T15:31:06.286Z,3.28
2023-03-30T15:33:42.036Z,3.00
2023-03-30T15:36:36.475Z,3.08
2023-03-30T15:39:19.201Z,2.60
2023-03-30T15:41:50.977Z,2.40
2023-03-30T15:44:20.912Z,2.33
2023-03-30T15:46:51.597Z,2.55
2023-03-30T15:49:23.581Z,2.65
2023-03-30T15:51:58.943Z,3.10
2023-03-30T15:54:41.548Z,2.75
2023-03-30T15:57:13.434Z,2.20
2023-03-30T15:59:52.771Z,2.50
2023-03-30T16:02:32.632Z,2.00
2023-03-30T16:05:05.496Z,1.88
2023-03-30T16:07:33.319Z,1.95
2023-03-30T16:10:00.499Z,1.92
2023-03-30T16:12:30.194Z,2.20
2023-03-30T16:14:58.654Z,1.98
2023-03-30T16:17:25.939Z,2.08
2023-03-30T16:19:52.888Z,2.20
2023-03-30T16:22:19.968Z,2.10
2023-03-30T16:24:48.516Z,2.33
2023-03-30T16:27:15.671Z,2.40
2023-03-30T16:29:42.997Z,2.45
2023-03-30T16:32:09.968Z,2.38
2023-03-30T16:34:37.318Z,2.47
2023-03-30T16:37:04.292Z,2.10
2023-03-30T16:39:31.511Z,2.17
2023-03-30T16:41:58.633Z,2.55
2023-03-30T16:44:26.186Z,2.50
2023-03-30T16:46:53.640Z,2.75
2023-03-30T16:49:24.697Z,2.63
2023-03-30T16:51:55.363Z,2.60
2023-03-30T16:54:32.091Z,2.95
2023-03-30T16:57:02.004Z,2.75
2023-03-30T16:59:31.127Z,2.13
2023-03-30T17:01:58.970Z,2.67
2023-03-30T17:04:26.830Z,2.40
2023-03-30T17:06:56.549Z,2.58
2023-03-30T17:09:23.630Z,2.45
2023-03-30T17:11:51.594Z,2.95
2023-03-30T17:14:20.477Z,2.70
2023-03-30T17:16:47.570Z,3.38
2023-03-30T17:19:15.036Z,2.63
2023-03-30T17:21:46.289Z,2.90
2023-03-30T17:24:15.404Z,2.83
2023-03-30T17:26:43.134Z,3.78
2023-03-30T17:29:11.271Z,2.80
2023-03-30T17:31:46.044Z,3.00
2023-03-30T17:34:13.303Z,3.10
2023-03-30T17:36:40.410Z,3.08
2023-03-30T17:39:07.562Z,3.58
2023-03-30T17:41:34.478Z,3.05
2023-03-30T17:44:01.374Z,3.00
2023-03-30T17:46:28.640Z,3.05
2023-03-30T17:48:55.769Z,2.97
2023-03-30T17:51:22.641Z,3.75
2023-03-30T17:53:49.748Z,3.38
2023-03-30T17:56:16.670Z,3.83
2023-03-30T17:58:43.584Z,3.58
2023-03-30T18:01:13.113Z,3.60
2023-03-30T18:03:40.202Z,4.38
2023-03-30T18:06:07.811Z,3.90
2023-03-30T18:08:36.336Z,4.57
2023-03-30T18:11:04.865Z,4.88
2023-03-30T18:13:32.432Z,3.83
2023-03-30T18:16:01.993Z,4.03
2023-03-30T18:18:31.352Z,4.38
2023-03-30T18:21:04.935Z,3.85
2023-03-30T18:23:37.628Z,3.53
2023-03-30T18:26:10.340Z,3.63
2023-03-30T18:28:40.711Z,3.72
2023-03-30T18:31:08.983Z,3.47
2023-03-30T18:33:36.248Z,3.35
2023-03-30T18:36:06.500Z,3.97
2023-03-30T18:38:34.076Z,3.60
2023-03-30T18:41:01.660Z,3.50
2023-03-30T18:43:28.874Z,3.92
2023-03-30T18:46:00.001Z,3.13
2023-03-30T18:48:29.047Z,3.60
2023-03-30T18:50:57.005Z,4.35
2023-03-30T18:53:28.090Z,4.50
2023-03-30T18:55:58.793Z,4.32
2023-03-30T18:58:28.958Z,5.57
2023-03-30T19:00:56.585Z,4.15
2023-03-30T19:03:25.026Z,4.03
2023-03-30T19:05:52.559Z,3.70
2023-03-30T19:08:22.814Z,3.70
2023-03-30T19:10:56.032Z,3.15
2023-03-30T19:13:25.533Z,3.20
2023-03-30T19:15:53.703Z,3.80
2023-03-30T19:18:21.078Z,3.45
2023-03-30T19:20:50.253Z,4.35
2023-03-30T19:23:19.225Z,4.65
2023-03-30T19:25:46.364Z,3.90
2023-03-30T19:28:15.616Z,3.88
2023-03-30T19:30:43.460Z,3.80
2023-03-30T19:33:19.960Z,4.82
2023-03-30T19:35:47.532Z,3.65
2023-03-30T19:38:15.877Z,4.25
2023-03-30T19:40:43.383Z,4.22
2023-03-30T19:43:10.772Z,5.00
2023-03-30T19:45:38.308Z,4.45
2023-03-30T19:48:05.391Z,3.83
2023-03-30T19:50:32.607Z,4.22
2023-03-30T19:53:00.040Z,4.05
2023-03-30T19:55:28.302Z,4.05
2023-03-30T19:57:56.085Z,4.03
2023-03-30T20:00:23.919Z,4.57
2023-03-30T20:02:54.096Z,4.82
2023-03-30T20:05:24.028Z,4.43
2023-03-30T20:07:51.771Z,4.60
2023-03-30T20:10:24.028Z,4.60
2023-03-30T20:12:52.322Z,4.40
2023-03-30T20:15:21.872Z,4.97
2023-03-30T20:17:49.047Z,4.57
2023-03-30T20:20:23.075Z,4.88
2023-03-30T20:22:53.782Z,4.00
2023-03-30T20:25:22.251Z,3.78
2023-03-30T20:27:49.652Z,3.90
2023-03-30T20:30:17.368Z,4.80
2023-03-30T20:32:48.421Z,4.70
2023-03-30T20:35:25.768Z,5.25
2023-03-30T20:37:53.008Z,4.53
2023-03-30T20:40:21.275Z,4.53
2023-03-30T20:42:48.613Z,4.80
2023-03-30T20:45:17.801Z,4.75
2023-03-30T20:47:50.355Z,5.03
2023-03-30T20:50:17.470Z,6.45
2023-03-30T20:52:44.375Z,6.25
2023-03-30T20:55:11.677Z,6.53
2023-03-30T20:57:38.921Z,5.93
2023-03-30T21:00:07.886Z,6.63
2023-03-30T21:02:35.083Z,6.15
2023-03-30T21:05:02.505Z,6.22
2023-03-30T21:07:30.020Z,7.47
2023-03-30T21:09:56.949Z,6.50
2023-03-30T21:12:23.830Z,6.47
2023-03-30T21:14:50.735Z,5.95
2023-03-30T21:17:17.716Z,7.05
2023-03-30T21:19:44.931Z,6.82
2023-03-30T21:22:11.808Z,6.63
2023-03-30T21:24:38.858Z,7.07
2023-03-30T21:27:05.958Z,6.05
2023-03-30T21:29:33.037Z,7.05
2023-03-30T21:31:59.954Z,7.30
2023-03-30T21:34:26.827Z,6.90
2023-03-30T21:36:54.127Z,7.03
2023-03-30T21:39:21.391Z,6.88
2023-03-30T21:41:48.352Z,8.00
2023-03-30T21:44:15.271Z,7.10
2023-03-30T21:46:42.335Z,6.50
2023-03-30T21:49:09.320Z,6.07
2023-03-30T21:51:36.204Z,7.03
2023-03-30T21:54:03.558Z,6.35
2023-03-30T21:56:31.389Z,6.93
2023-03-30T21:58:59.487Z,6.03
2023-03-30T22:01:26.997Z,7.25
2023-03-30T22:03:55.210Z,6.75
2023-03-30T22:06:23.294Z,5.53
2023-03-30T22:08:51.093Z,6.57
2023-03-30T22:11:21.921Z,6.50
2023-03-30T22:13:49.980Z,5.80
2023-03-30T22:16:22.737Z,5.63
2023-03-30T22:18:51.456Z,6.07
2023-03-30T22:21:25.074Z,6.32
2023-03-30T22:23:55.023Z,5.32
2023-03-30T22:26:22.523Z,6.03
2023-03-30T22:28:49.703Z,6.30
2023-03-30T22:31:17.036Z,6.75
2023-03-30T22:33:44.381Z,6.93
2023-03-30T22:36:24.039Z,7.57
2023-03-30T22:38:52.328Z,5.93
2023-03-30T22:41:24.299Z,6.05
2023-03-30T22:43:53.978Z,6.18
2023-03-30T22:46:22.482Z,6.90
2023-03-30T22:48:50.228Z,6.70
2023-03-30T22:51:23.770Z,6.13
2023-03-30T22:53:50.730Z,5.38
2023-03-30T22:56:17.981Z,7.93
2023-03-30T22:58:44.944Z,8.20
2023-03-30T23:01:12.393Z,5.90
2023-03-30T23:03:39.809Z,5.10
2023-03-30T23:06:08.235Z,4.15
2023-03-30T23:08:36.035Z,2.95
2023-03-30T23:11:06.709Z,2.90
2023-03-30T23:13:42.309Z,2.42
2023-03-30T23:16:09.461Z,2.80
2023-03-30T23:18:36.980Z,2.55
2023-03-30T23:21:06.980Z,2.72
2023-03-30T23:23:36.321Z,2.42
2023-03-30T23:26:10.073Z,2.13
2023-03-30T23:28:42.224Z,1.80
2023-03-30T23:31:11.027Z,2.25
2023-03-30T23:33:38.283Z,2.10
2023-03-30T23:36:06.677Z,2.35
2023-03-30T23:38:34.123Z,2.13
2023-03-30T23:41:01.583Z,1.70
2023-03-30T23:43:28.553Z,2.20
2023-03-30T23:45:56.032Z,2.33
2023-03-30T23:48:23.082Z,2.30
2023-03-30T23:50:50.218Z,2.65
2023-03-30T23:53:19.878Z,2.65
2023-03-30T23:55:50.353Z,2.42
2023-03-30T23:58:20.895Z,2.15
